X  CloseMetar Aviation Weather Data     LIML Linate

Temperatura

9°C Temperatura

5°C Punto di rugiada

76% Umidità



Vento

 8 KM/H

 5 MPH

 2 M/S

 4 KTS



240°
Ovest Sud
Ovest
Condizioni attuali

Parzialmente nuvoloso Parzialmente nuvoloso
Pressione atmosferica 1018.92 (hPa) - 30.09 (in)
Visibilità 5.6 (mi) - 9 (km)
Aeroporto
Airport-code LIML

Posizione Linate 100 (km)

Metar:
LIML 081220Z 24004KT 200V290 9000 FEW060 09/05 Q1019 NOSIG

Ore: 12-08-2019 13:20